Time;durP1;ratioP1;P1;durP2;ratioP2;P2;SDS_P1;SDS_P2;PMS_P1;PMS_P2;Temp;Humidity;BMP_temperature;BMP_pressure;BME280_temperature;BME280_humidity;BME280_pressure;Samples;Min_cycle;Max_cycle;Signal;HPM_P1;HPM_P2
2022/09/15 00:01:40;;;;;;;143.70;37.50;;;;;;;13.42;100.00;100378.56;5034556;28;20041;-78
2022/09/15 00:04:15;;;;;;;117.35;33.53;;;;;;;13.37;100.00;100372.66;5018493;28;20084;-78
2022/09/15 00:06:41;;;;;;;126.72;35.85;;;;;;;13.32;100.00;100374.13;4999511;28;20030;-78
2022/09/15 00:09:16;;;;;;;137.75;37.00;;;;;;;13.24;100.00;100374.88;5010123;28;20033;-78
2022/09/15 00:11:42;;;;;;;112.75;34.53;;;;;;;13.32;100.00;100368.63;5024803;28;20550;-78
2022/09/15 00:14:12;;;;;;;125.90;34.88;;;;;;;13.14;100.00;100380.41;5010164;28;20041;-78
2022/09/15 00:16:45;;;;;;;110.00;34.03;;;;;;;13.19;100.00;100377.22;5011122;28;20516;-77
2022/09/15 00:19:15;;;;;;;112.38;34.80;;;;;;;13.15;100.00;100379.41;5025632;28;20065;-77
2022/09/15 00:21:42;;;;;;;132.70;36.90;;;;;;;13.24;100.00;100375.72;5001558;28;20025;-77
2022/09/15 00:24:10;;;;;;;156.45;36.97;;;;;;;13.21;100.00;100377.91;5025678;28;20033;-77
2022/09/15 00:26:36;;;;;;;121.70;35.10;;;;;;;13.14;100.00;100365.81;5018987;28;20037;-77
2022/09/15 00:29:05;;;;;;;139.45;39.15;;;;;;;13.15;100.00;100370.25;5023094;28;20038;-77
2022/09/15 00:31:34;;;;;;;123.40;35.78;;;;;;;13.04;100.00;100374.94;5017073;28;20029;-77
2022/09/15 00:34:03;;;;;;;131.02;34.60;;;;;;;13.03;100.00;100359.44;5015712;28;20046;-78
2022/09/15 00:36:33;;;;;;;124.70;35.30;;;;;;;13.10;100.00;100365.25;5017786;28;20034;-77
2022/09/15 00:39:06;;;;;;;100.88;35.00;;;;;;;13.06;100.00;100359.16;5022377;28;20478;-77
2022/09/15 00:41:32;;;;;;;126.50;37.22;;;;;;;13.11;100.00;100358.72;5020641;28;20034;-77
2022/09/15 00:44:15;;;;;;;153.52;40.97;;;;;;;13.23;100.00;100354.78;5022910;28;20370;-77
2022/09/15 00:46:48;;;;;;;143.82;37.10;;;;;;;13.20;100.00;100355.06;5019281;28;20049;-77
2022/09/15 00:49:26;;;;;;;123.00;36.47;;;;;;;13.14;100.00;100363.91;5020782;28;20029;-77
2022/09/15 00:52:02;;;;;;;143.35;36.13;;;;;;;13.15;100.00;100364.75;5014203;28;20393;-77
2022/09/15 00:54:33;;;;;;;147.45;37.83;;;;;;;13.10;100.00;100356.09;5000319;28;20045;-77
2022/09/15 00:57:03;;;;;;;137.30;37.63;;;;;;;13.10;100.00;100361.59;5001298;28;20041;-77
2022/09/15 00:59:37;;;;;;;137.13;37.08;;;;;;;13.06;100.00;100356.41;5022290;28;20025;-78
2022/09/15 01:02:28;;;;;;;133.18;36.03;;;;;;;13.05;100.00;100357.44;5018312;28;20069;-77
2022/09/15 01:04:59;;;;;;;111.65;33.05;;;;;;;13.00;100.00;100370.78;5009563;28;20040;-77
2022/09/15 01:07:38;;;;;;;111.22;31.83;;;;;;;13.00;100.00;100362.53;5015222;28;20419;-77
2022/09/15 01:10:10;;;;;;;101.20;31.35;;;;;;;12.97;100.00;100364.69;5021630;28;20041;-77
2022/09/15 01:12:40;;;;;;;114.10;32.40;;;;;;;12.99;100.00;100365.41;5021484;28;20029;-77
2022/09/15 01:15:09;;;;;;;115.28;32.85;;;;;;;13.01;100.00;100367.00;5021860;28;20022;-77
2022/09/15 01:18:30;;;;;;;95.78;31.55;;;;;;;12.89;100.00;100351.72;5019018;28;20168;-78
2022/09/15 01:21:17;;;;;;;111.43;31.02;;;;;;;13.01;100.00;100358.75;5027573;28;20045;-77
2022/09/15 01:24:12;;;;;;;102.43;29.40;;;;;;;13.02;100.00;100354.13;5022983;28;20042;-77
2022/09/15 01:27:05;;;;;;;95.50;27.75;;;;;;;12.92;100.00;100351.41;5029546;28;20358;-77
2022/09/15 01:30:03;;;;;;;89.53;27.38;;;;;;;13.11;100.00;100361.47;5020357;28;20045;-77
2022/09/15 01:33:04;;;;;;;95.78;27.20;;;;;;;13.10;100.00;100367.09;5015896;28;20440;-77
2022/09/15 01:35:41;;;;;;;92.63;26.80;;;;;;;13.13;100.00;100362.16;5017328;28;20121;-77
2022/09/15 01:38:15;;;;;;;108.65;28.83;;;;;;;13.19;100.00;100371.72;5024375;28;20393;-78
2022/09/15 01:40:54;;;;;;;90.47;29.30;;;;;;;13.20;100.00;100363.31;5006122;28;20040;-78
2022/09/15 01:43:24;;;;;;;99.85;28.90;;;;;;;13.19;100.00;100360.72;5031317;28;20444;-78
2022/09/15 01:45:51;;;;;;;103.63;31.80;;;;;;;13.20;100.00;100370.72;5019533;28;20108;-77
2022/09/15 01:48:21;;;;;;;114.53;30.50;;;;;;;13.22;100.00;100361.28;5028120;28;20053;-77
2022/09/15 01:51:02;;;;;;;101.82;29.58;;;;;;;13.23;100.00;100362.13;5024632;28;20032;-77
2022/09/15 01:53:33;;;;;;;105.00;30.95;;;;;;;13.26;100.00;100364.59;5016941;28;20053;-77
2022/09/15 01:56:04;;;;;;;113.25;30.25;;;;;;;13.30;100.00;100370.63;5018613;28;20056;-78
2022/09/15 01:58:38;;;;;;;107.40;31.85;;;;;;;13.23;100.00;100374.00;5016384;28;20025;-78
2022/09/15 02:01:07;;;;;;;104.78;31.05;;;;;;;13.28;100.00;100375.44;5021784;28;20046;-78
2022/09/15 02:03:54;;;;;;;120.13;31.50;;;;;;;13.28;100.00;100369.94;5025860;28;20032;-78
2022/09/15 02:06:35;;;;;;;110.75;30.88;;;;;;;13.27;100.00;100369.06;5020251;28;20052;-78
2022/09/15 02:09:16;;;;;;;116.53;32.95;;;;;;;13.30;100.00;100371.53;5020327;28;20459;-78
2022/09/15 02:12:37;;;;;;;109.78;32.53;;;;;;;13.28;100.00;100373.56;5022085;28;20041;-78
2022/09/15 02:15:13;;;;;;;124.40;34.92;;;;;;;13.27;100.00;100363.56;5025015;28;20049;-78
2022/09/15 02:17:45;;;;;;;112.60;32.90;;;;;;;13.31;100.00;100372.38;5023266;28;20030;-78
2022/09/15 02:20:28;;;;;;;124.47;35.47;;;;;;;13.34;100.00;100369.38;5025972;28;20026;-77
2022/09/15 02:22:59;;;;;;;111.38;33.50;;;;;;;13.38;100.00;100368.03;5026091;28;20026;-78
2022/09/15 02:25:31;;;;;;;126.78;34.80;;;;;;;13.34;100.00;100356.47;5020252;28;20022;-78
2022/09/15 02:28:06;;;;;;;119.10;34.63;;;;;;;13.35;100.00;100354.59;5042683;28;20603;-77
2022/09/15 02:30:43;;;;;;;117.50;37.03;;;;;;;13.37;100.00;100349.81;5024434;28;20038;-78
2022/09/15 02:33:16;;;;;;;132.73;36.58;;;;;;;13.44;100.00;100361.06;5020512;28;20117;-78
2022/09/15 02:35:42;;;;;;;145.75;35.67;;;;;;;13.50;100.00;100360.47;5030707;28;20116;-78
2022/09/15 02:38:13;;;;;;;123.40;34.63;;;;;;;13.37;100.00;100353.41;5033910;28;20095;-78
2022/09/15 02:40:42;;;;;;;119.05;34.85;;;;;;;13.33;100.00;100356.63;5027115;28;20552;-78
2022/09/15 02:43:17;;;;;;;105.05;33.45;;;;;;;13.34;100.00;100359.22;5017632;28;20037;-78
2022/09/15 02:45:48;;;;;;;102.38;30.63;;;;;;;13.35;100.00;100365.59;5030302;28;20030;-77
2022/09/15 02:48:14;;;;;;;98.80;32.42;;;;;;;13.32;100.00;100360.38;5026888;28;20115;-78
2022/09/15 02:50:49;;;;;;;96.20;31.55;;;;;;;13.34;100.00;100366.63;5021115;28;20440;-78
2022/09/15 02:53:24;;;;;;;93.50;31.70;;;;;;;13.30;100.00;100360.53;5030971;28;20116;-78
2022/09/15 02:55:49;;;;;;;101.20;33.65;;;;;;;13.29;100.00;100366.16;5033124;28;20576;-77
2022/09/15 02:58:20;;;;;;;120.13;34.78;;;;;;;13.31;100.00;100361.38;5007718;28;20052;-78
2022/09/15 03:00:47;;;;;;;111.40;35.17;;;;;;;13.32;100.00;100366.75;5017851;28;20030;-78
2022/09/15 03:03:12;;;;;;;125.63;35.08;;;;;;;13.31;100.00;100369.63;4988999;28;20049;-78
2022/09/15 03:05:46;;;;;;;113.30;36.03;;;;;;;13.27;100.00;100369.06;5004175;28;20029;-77
2022/09/15 03:08:21;;;;;;;105.55;34.35;;;;;;;13.30;100.00;100367.88;5015114;28;20109;-78
2022/09/15 03:10:58;;;;;;;132.38;37.85;;;;;;;13.36;100.00;100378.31;5019460;28;20374;-77
2022/09/15 03:13:26;;;;;;;140.13;39.08;;;;;;;13.37;100.00;100377.31;5014600;28;20498;-78
2022/09/15 03:15:52;;;;;;;127.63;39.03;;;;;;;13.26;100.00;100381.06;5014843;28;20034;-77
2022/09/15 03:18:20;;;;;;;147.65;39.35;;;;;;;13.30;100.00;100381.63;5004412;28;20046;-77
2022/09/15 03:20:47;;;;;;;141.50;39.70;;;;;;;13.19;100.00;100378.06;5003493;28;20076;-78
2022/09/15 03:23:17;;;;;;;138.25;39.33;;;;;;;13.12;100.00;100381.56;5016105;28;20128;-78
2022/09/15 03:25:46;;;;;;;153.95;39.55;;;;;;;13.14;100.00;100383.16;5014372;28;20060;-79
2022/09/15 03:28:12;;;;;;;142.25;39.83;;;;;;;13.11;100.00;100388.94;5019662;28;20068;-77
2022/09/15 03:30:37;;;;;;;143.93;41.00;;;;;;;13.03;100.00;100389.69;5015540;28;20489;-77
2022/09/15 03:33:05;;;;;;;143.57;39.53;;;;;;;12.96;100.00;100383.06;5013136;28;20168;-77
2022/09/15 03:35:31;;;;;;;156.82;40.78;;;;;;;12.98;100.00;100369.16;5004666;28;20121;-77
2022/09/15 03:37:57;;;;;;;151.05;40.60;;;;;;;12.97;100.00;100368.31;5022033;28;20092;-77
2022/09/15 03:40:27;;;;;;;151.13;40.17;;;;;;;12.98;100.00;100366.44;4997584;28;20036;-77
2022/09/15 03:42:53;;;;;;;138.65;40.42;;;;;;;12.91;100.00;100370.78;5002365;28;20045;-78
2022/09/15 03:45:21;;;;;;;131.95;38.95;;;;;;;12.85;100.00;100364.00;5009449;28;20076;-77
2022/09/15 03:47:56;;;;;;;115.13;37.63;;;;;;;12.80;100.00;100371.81;5011424;28;20038;-77
2022/09/15 03:50:21;;;;;;;138.10;39.30;;;;;;;12.86;100.00;100380.34;5012408;28;20093;-77
2022/09/15 03:52:48;;;;;;;131.77;39.67;;;;;;;12.77;100.00;100385.84;5005457;28;20037;-77
2022/09/15 03:55:13;;;;;;;151.63;42.13;;;;;;;12.83;100.00;100383.38;5020534;28;20033;-77
2022/09/15 03:57:49;;;;;;;153.02;43.00;;;;;;;12.80;100.00;100378.16;5032373;28;20116;-77
2022/09/15 04:00:22;;;;;;;148.18;40.40;;;;;;;12.90;100.00;100385.53;5015748;28;20050;-77
2022/09/15 04:02:57;;;;;;;178.65;45.10;;;;;;;12.95;100.00;100375.81;5022290;28;20454;-77
2022/09/15 04:05:25;;;;;;;167.13;44.85;;;;;;;12.98;100.00;100375.53;5002148;28;20439;-77
2022/09/15 04:07:52;;;;;;;150.02;44.10;;;;;;;13.03;100.00;100389.69;5023171;28;20032;-77
2022/09/15 04:10:28;;;;;;;178.23;46.47;;;;;;;13.04;100.00;100390.56;5031956;28;20057;-78
2022/09/15 04:12:54;;;;;;;152.60;43.17;;;;;;;13.01;100.00;100390.88;5016815;28;20034;-77
2022/09/15 04:15:22;;;;;;;137.18;42.85;;;;;;;13.03;100.00;100388.81;5021062;28;20037;-77
2022/09/15 04:17:53;;;;;;;187.02;48.38;;;;;;;13.14;100.00;100387.78;5012143;28;20080;-77
2022/09/15 04:20:28;;;;;;;133.80;42.90;;;;;;;13.14;100.00;100398.78;5017113;28;20600;-77
2022/09/15 04:22:54;;;;;;;149.90;43.22;;;;;;;13.11;100.00;100394.44;5013617;28;20509;-77
2022/09/15 04:25:28;;;;;;;;;;;;;;;13.13;100.00;100388.78;5011543;28;20042;-77
2022/09/15 04:27:57;;;;;;;145.02;44.67;;;;;;;13.16;100.00;100389.34;5016152;28;19967;-77
2022/09/15 04:30:28;;;;;;;144.27;44.58;;;;;;;13.15;100.00;100393.16;5005118;28;20041;-77
2022/09/15 04:33:01;;;;;;;134.23;44.17;;;;;;;13.15;100.00;100395.00;5017545;28;20045;-77
2022/09/15 04:35:28;;;;;;;151.18;47.50;;;;;;;13.15;100.00;100389.50;5006026;28;20413;-76
2022/09/15 04:38:05;;;;;;;147.75;44.63;;;;;;;13.10;100.00;100389.09;4992194;28;20145;-77
2022/09/15 04:40:37;;;;;;;155.95;45.95;;;;;;;13.07;100.00;100390.28;5020675;28;20033;-77
2022/09/15 04:43:03;;;;;;;140.35;45.10;;;;;;;13.17;100.00;100398.50;5006971;28;20033;-77
2022/09/15 04:45:42;;;;;;;120.43;42.40;;;;;;;13.12;100.00;100392.56;5019777;28;20060;-77
2022/09/15 04:48:11;;;;;;;137.60;45.38;;;;;;;13.16;100.00;100394.00;5007084;28;20099;-77
2022/09/15 04:50:39;;;;;;;126.47;44.20;;;;;;;13.12;100.00;100392.56;5007256;28;20030;-77
2022/09/15 04:53:15;;;;;;;133.55;45.08;;;;;;;13.18;100.00;100395.59;5027105;28;20117;-77
2022/09/15 04:55:44;;;;;;;126.97;44.35;;;;;;;13.22;100.00;100398.91;5030723;28;20180;-77
2022/09/15 04:58:10;;;;;;;137.80;43.08;;;;;;;13.16;100.00;100392.09;5007196;28;20125;-77
2022/09/15 05:00:42;;;;;;;116.95;41.42;;;;;;;13.12;100.00;100395.28;5018596;28;20029;-77
2022/09/15 05:03:11;;;;;;;136.82;44.55;;;;;;;13.16;100.00;100386.59;5007076;28;20037;-77
2022/09/15 05:05:41;;;;;;;137.93;41.45;;;;;;;13.19;100.00;100394.56;5027892;28;20025;-77
2022/09/15 05:08:16;;;;;;;132.55;43.88;;;;;;;13.21;100.00;100399.91;5018742;28;20567;-77
2022/09/15 05:10:47;;;;;;;154.57;44.47;;;;;;;13.19;100.00;100393.69;5004063;28;20034;-77
2022/09/15 05:13:16;;;;;;;155.13;47.85;;;;;;;13.24;100.00;100392.22;4985860;28;20042;-77
2022/09/15 05:15:44;;;;;;;135.73;43.85;;;;;;;13.13;100.00;100397.03;5009963;28;20486;-77
2022/09/15 05:18:11;;;;;;;141.63;43.45;;;;;;;13.24;100.00;100399.63;5000964;28;20064;-77
2022/09/15 05:20:37;;;;;;;138.70;44.78;;;;;;;13.20;100.00;100400.94;5038588;28;20477;-77
2022/09/15 05:23:13;;;;;;;123.45;42.17;;;;;;;13.26;100.00;100399.47;4990271;28;20034;-77
2022/09/15 05:25:41;;;;;;;125.45;43.17;;;;;;;13.24;100.00;100392.22;5006809;28;20076;-77
2022/09/15 05:28:12;;;;;;;130.55;42.17;;;;;;;13.21;100.00;100403.50;5023174;28;20398;-77
2022/09/15 05:30:39;;;;;;;127.20;42.80;;;;;;;13.28;100.00;100397.41;5025297;28;20041;-77
2022/09/15 05:33:08;;;;;;;154.43;45.45;;;;;;;13.30;100.00;100396.28;5026416;28;20043;-77
2022/09/15 05:35:36;;;;;;;139.15;44.83;;;;;;;13.31;100.00;100403.47;5041546;28;20040;-77
2022/09/15 05:38:08;;;;;;;112.32;41.28;;;;;;;13.32;100.00;100409.88;5020491;28;20121;-78
2022/09/15 05:40:42;;;;;;;119.65;40.28;;;;;;;13.29;100.00;100405.53;5041507;28;20037;-78
2022/09/15 05:43:17;;;;;;;124.32;43.38;;;;;;;13.38;100.00;100404.66;5009358;28;20033;-78
2022/09/15 05:45:53;;;;;;;129.90;43.22;;;;;;;13.36;100.00;100403.97;5021184;28;20025;-77
2022/09/15 05:48:25;;;;;;;149.23;42.33;;;;;;;13.31;100.00;100413.63;5016923;28;20045;-77
2022/09/15 05:50:57;;;;;;;129.50;40.45;;;;;;;13.37;100.00;100405.66;5027887;28;20384;-78
2022/09/15 05:53:34;;;;;;;119.10;39.90;;;;;;;13.42;100.00;100422.56;5030734;28;20401;-77
2022/09/15 05:56:06;;;;;;;121.90;42.80;;;;;;;13.41;100.00;100423.63;5028996;28;20116;-78
2022/09/15 05:58:44;;;;;;;126.13;43.15;;;;;;;13.42;100.00;100419.81;5002347;28;20025;-78
2022/09/15 06:01:31;;;;;;;120.82;42.13;;;;;;;13.50;100.00;100421.84;5000862;28;20132;-78
2022/09/15 06:04:02;;;;;;;119.45;40.97;;;;;;;13.60;100.00;100425.41;5018808;28;20034;-78
2022/09/15 06:06:36;;;;;;;119.93;40.13;;;;;;;13.51;100.00;100422.69;5035815;28;20025;-78
2022/09/15 06:09:04;;;;;;;120.78;41.40;;;;;;;13.56;100.00;100420.34;5020890;28;20037;-79
2022/09/15 06:11:32;;;;;;;128.95;41.33;;;;;;;13.56;100.00;100431.34;5024942;28;20029;-79
2022/09/15 06:14:02;;;;;;;98.03;37.35;;;;;;;13.58;100.00;100437.59;5025863;28;20390;-79
2022/09/15 06:16:34;;;;;;;107.20;38.22;;;;;;;13.55;100.00;100436.00;5021384;28;20116;-79
2022/09/15 06:19:00;;;;;;;108.88;38.92;;;;;;;13.62;100.00;100429.88;5029448;28;20061;-79
2022/09/15 06:21:28;;;;;;;107.45;35.92;;;;;;;13.60;100.00;100435.53;5019433;28;20089;-79
2022/09/15 06:24:05;;;;;;;94.63;36.22;;;;;;;13.69;100.00;100436.50;5019517;28;20030;-78
2022/09/15 06:26:32;;;;;;;101.15;37.60;;;;;;;13.76;100.00;100440.41;5018470;28;20065;-79
2022/09/15 06:29:00;;;;;;;94.55;35.33;;;;;;;13.70;100.00;100441.84;5015590;28;20050;-78
2022/09/15 06:31:30;;;;;;;91.55;36.83;;;;;;;13.75;100.00;100447.75;5026461;28;20400;-79
2022/09/15 06:34:05;;;;;;;107.93;39.20;;;;;;;13.79;100.00;100451.09;5015940;28;20040;-78
2022/09/15 06:36:32;;;;;;;99.93;36.20;;;;;;;13.79;100.00;100451.97;4995648;28;20072;-78
2022/09/15 06:38:58;;;;;;;96.97;38.17;;;;;;;13.84;100.00;100457.00;5011963;28;20088;-79
2022/09/15 06:41:27;;;;;;;120.97;39.13;;;;;;;13.88;100.00;100463.06;5031554;28;20453;-78
2022/09/15 06:43:55;;;;;;;109.68;38.33;;;;;;;13.86;100.00;100463.22;5049165;28;20037;-77
2022/09/15 06:46:23;;;;;;;110.10;38.75;;;;;;;13.90;100.00;100461.03;5018124;28;20080;-78
2022/09/15 06:48:54;;;;;;;106.95;38.88;;;;;;;13.95;100.00;100459.56;5035202;28;20037;-79
2022/09/15 06:51:23;;;;;;;119.97;41.80;;;;;;;14.08;100.00;100467.44;5009151;28;20101;-78
2022/09/15 06:53:52;;;;;;;101.35;36.90;;;;;;;14.12;100.00;100468.03;5027668;28;20516;-77
2022/09/15 06:56:20;;;;;;;119.32;37.47;;;;;;;14.23;100.00;100465.06;5024874;28;20101;-78
2022/09/15 06:58:49;;;;;;;93.53;36.58;;;;;;;14.30;100.00;100462.53;5030847;28;20044;-78
2022/09/15 07:01:21;;;;;;;100.50;38.40;;;;;;;14.45;100.00;100457.34;5018309;28;20367;-78
2022/09/15 07:03:59;;;;;;;94.47;35.88;;;;;;;14.52;100.00;100469.47;5020787;28;20405;-78
2022/09/15 07:06:30;;;;;;;92.15;33.30;;;;;;;14.50;100.00;100474.28;5020325;28;20026;-79
2022/09/15 07:08:58;;;;;;;;;;;;;;;14.42;100.00;100479.69;5022910;28;20033;-78
2022/09/15 07:11:26;;;;;;;86.82;33.20;;;;;;;14.47;100.00;100488.34;5018880;28;19944;-79
2022/09/15 07:13:54;;;;;;;93.55;32.75;;;;;;;14.34;100.00;100488.72;5029041;28;20084;-79
2022/09/15 07:16:24;;;;;;;76.28;30.38;;;;;;;14.30;100.00;100498.34;5037215;28;20037;-78
2022/09/15 07:18:49;;;;;;;82.60;32.03;;;;;;;14.33;100.00;100498.00;5029322;28;20639;-78
2022/09/15 07:21:19;;;;;;;80.35;32.20;;;;;;;14.37;100.00;100501.34;5017590;28;20041;-78
2022/09/15 07:23:50;;;;;;;67.10;27.63;;;;;;;14.49;100.00;100500.09;5017233;28;20072;-77
2022/09/15 07:26:20;;;;;;;87.18;29.92;;;;;;;14.56;100.00;100497.56;5009082;28;20033;-78
2022/09/15 07:29:01;;;;;;;79.80;30.98;;;;;;;14.73;100.00;100502.25;5022164;28;20041;-78
2022/09/15 07:31:35;;;;;;;91.03;29.90;;;;;;;14.72;100.00;100507.94;5019242;28;20033;-78
2022/09/15 07:34:03;;;;;;;68.30;29.05;;;;;;;14.66;100.00;100506.69;5016574;28;20028;-78
2022/09/15 07:36:32;;;;;;;88.68;28.75;;;;;;;14.81;100.00;100515.25;5018386;28;20030;-78
2022/09/15 07:39:02;;;;;;;84.63;31.08;;;;;;;14.74;100.00;100512.28;5018727;28;20120;-77
2022/09/15 07:41:31;;;;;;;70.55;26.77;;;;;;;14.84;100.00;100518.56;5018743;28;20033;-77
2022/09/15 07:44:01;;;;;;;64.25;26.15;;;;;;;14.88;100.00;100513.59;5018770;28;20037;-78
2022/09/15 07:46:31;;;;;;;88.68;25.48;;;;;;;14.92;100.00;100520.53;5018689;28;20045;-78
2022/09/15 07:49:01;;;;;;;64.75;25.30;;;;;;;15.05;100.00;100521.00;5016776;28;20466;-78
2022/09/15 07:51:29;;;;;;;56.53;22.35;;;;;;;15.15;100.00;100522.78;5034538;28;20038;-78
2022/09/15 07:53:58;;;;;;;59.40;22.60;;;;;;;15.16;100.00;100522.63;5017914;28;20037;-78
2022/09/15 07:56:26;;;;;;;59.42;22.75;;;;;;;15.21;100.00;100530.44;5001627;28;20041;-78
2022/09/15 07:59:00;;;;;;;68.97;20.77;;;;;;;15.30;100.00;100523.06;5001498;28;20037;-78
2022/09/15 08:01:32;;;;;;;43.37;20.73;;;;;;;15.53;100.00;100527.06;4986551;28;20045;-78
2022/09/15 08:04:00;;;;;;;58.47;23.23;;;;;;;15.65;100.00;100526.78;5016847;28;20034;-78
2022/09/15 08:06:36;;;;;;;72.32;23.83;;;;;;;15.60;100.00;100528.13;5018773;28;20034;-78
2022/09/15 08:09:07;;;;;;;54.95;22.45;;;;;;;15.56;100.00;100532.25;5037075;28;20097;-78
2022/09/15 08:11:43;;;;;;;58.58;21.70;;;;;;;15.57;100.00;100535.88;5001617;28;20501;-78
2022/09/15 08:14:16;;;;;;;55.25;22.38;;;;;;;15.53;100.00;100535.34;5034137;28;20454;-78
2022/09/15 08:16:51;;;;;;;55.47;20.85;;;;;;;15.56;100.00;100531.38;5017470;28;20044;-78
2022/09/15 08:19:19;;;;;;;50.13;18.58;;;;;;;15.42;100.00;100543.88;5032860;28;20030;-78
2022/09/15 08:21:45;;;;;;;44.22;18.17;;;;;;;15.38;100.00;100537.81;5016268;28;20045;-78
2022/09/15 08:24:13;;;;;;;39.92;17.40;;;;;;;15.35;100.00;100549.16;4999901;28;20389;-78
2022/09/15 08:26:38;;;;;;;44.38;15.70;;;;;;;15.38;100.00;100548.84;5016014;28;20036;-78
2022/09/15 08:29:06;;;;;;;32.15;14.80;;;;;;;15.36;100.00;100548.13;4998712;28;20053;-78
2022/09/15 08:31:33;;;;;;;43.50;14.70;;;;;;;15.45;100.00;100557.34;4999821;28;20048;-78
2022/09/15 08:34:02;;;;;;;43.13;15.55;;;;;;;15.43;100.00;100552.00;5007089;28;20034;-78
2022/09/15 08:36:37;;;;;;;44.42;16.50;;;;;;;15.46;100.00;100560.97;5017035;28;20545;-78
2022/09/15 08:39:04;;;;;;;46.40;15.27;;;;;;;15.46;100.00;100564.56;5032089;28;20068;-77
2022/09/15 08:41:41;;;;;;;36.03;14.60;;;;;;;15.39;100.00;100566.25;5031595;28;20033;-77
2022/09/15 08:44:29;;;;;;;40.65;15.30;;;;;;;15.56;100.00;100568.13;5013398;28;20057;-77
2022/09/15 08:47:09;;;;;;;54.35;14.48;;;;;;;15.63;100.00;100568.34;5013215;28;20045;-78
2022/09/15 08:49:56;;;;;;;37.00;14.18;;;;;;;15.69;100.00;100569.56;5021509;28;20064;-78
2022/09/15 08:52:49;;;;;;;41.78;13.48;;;;;;;15.69;100.00;100567.72;5034912;28;20366;-78
2022/09/15 08:55:24;;;;;;;35.40;13.70;;;;;;;15.85;100.00;100572.47;5027711;28;20033;-79
2022/09/15 08:57:53;;;;;;;46.85;14.18;;;;;;;15.86;100.00;100576.97;5022028;28;20041;-78
2022/09/15 09:00:25;;;;;;;40.67;12.35;;;;;;;15.92;100.00;100580.97;5027259;28;20034;-77
2022/09/15 09:03:06;;;;;;;34.50;12.30;;;;;;;15.94;100.00;100588.06;4999382;28;20037;-78
2022/09/15 09:05:47;;;;;;;39.60;13.07;;;;;;;15.93;100.00;100583.56;5016246;28;20080;-78
2022/09/15 09:08:29;;;;;;;32.13;11.10;;;;;;;15.96;100.00;100590.69;5030742;28;20030;-78
2022/09/15 09:11:31;;;;;;;33.90;11.30;;;;;;;15.96;100.00;100587.91;5015311;28;20044;-78
2022/09/15 09:14:19;;;;;;;37.65;10.40;;;;;;;15.95;100.00;100587.06;5012030;28;20099;-78
2022/09/15 09:17:16;;;;;;;22.92;9.88;;;;;;;15.99;100.00;100595.88;5016302;28;20041;-78
2022/09/15 09:20:03;;;;;;;43.20;10.25;;;;;;;15.86;100.00;100600.97;4989475;28;20046;-78
2022/09/15 09:22:37;;;;;;;29.40;8.27;;;;;;;15.92;100.00;100594.78;5009074;28;20042;-78
2022/09/15 09:25:16;;;;;;;38.20;10.10;;;;;;;16.28;100.00;100592.75;5021617;28;20398;-78
2022/09/15 09:27:43;;;;;;;35.90;9.40;;;;;;;16.30;100.00;100604.50;5021245;28;20022;-78
2022/09/15 09:30:16;;;;;;;49.40;10.07;;;;;;;16.37;100.00;100604.69;5029578;28;20037;-78
2022/09/15 09:32:50;;;;;;;18.38;8.95;;;;;;;16.49;100.00;100605.25;5021862;28;20030;-77
2022/09/15 09:35:33;;;;;;;41.63;11.90;;;;;;;16.78;100.00;100604.00;5000377;28;20161;-77
2022/09/15 09:38:03;;;;;;;35.88;9.93;;;;;;;16.81;100.00;100598.13;5001325;28;20500;-78
2022/09/15 09:40:39;;;;;;;25.98;8.50;;;;;;;16.63;100.00;100609.31;5011776;28;20504;-78
2022/09/15 09:43:10;;;;;;;43.83;11.75;;;;;;;16.61;100.00;100606.72;5018542;28;20030;-77
2022/09/15 09:45:36;;;;;;;34.03;10.25;;;;;;;16.64;100.00;100602.72;5019353;28;20528;-77
2022/09/15 09:48:19;;;;;;;33.13;9.88;;;;;;;16.56;100.00;100609.13;5033274;28;20412;-78
2022/09/15 09:50:47;;;;;;;21.60;6.10;;;;;;;16.46;100.00;100608.34;5032455;28;20508;-78
2022/09/15 09:53:30;;;;;;;26.10;6.72;;;;;;;16.51;100.00;100604.09;5017266;28;20060;-78
2022/09/15 09:56:16;;;;;;;22.13;7.45;;;;;;;16.26;100.00;100603.09;5000575;28;20034;-77
2022/09/15 09:58:49;;;;;;;30.38;8.00;;;;;;;16.26;100.00;100599.47;5017473;28;20030;-77
2022/09/15 10:01:24;;;;;;;31.60;7.13;;;;;;;16.21;100.00;100596.34;5016822;28;20030;-77
2022/09/15 10:04:21;;;;;;;26.45;5.53;;;;;;;16.19;100.00;100602.03;5017229;28;20036;-77
2022/09/15 10:06:49;;;;;;;15.55;4.90;;;;;;;16.19;100.00;100604.78;5017787;28;20393;-77
2022/09/15 10:09:25;;;;;;;28.50;5.57;;;;;;;16.08;100.00;100602.31;5051390;28;20033;-78
2022/09/15 10:11:56;;;;;;;27.38;4.50;;;;;;;16.12;100.00;100600.97;5033286;28;20425;-78
2022/09/15 10:14:38;;;;;;;21.00;4.45;;;;;;;15.91;100.00;100595.81;5018318;28;20033;-78
2022/09/15 10:17:16;;;;;;;31.33;4.70;;;;;;;15.92;100.00;100601.19;5017901;28;20030;-78
2022/09/15 10:19:55;;;;;;;14.50;3.40;;;;;;;15.81;100.00;100593.16;5020354;28;20022;-78
2022/09/15 10:22:23;;;;;;;20.60;3.50;;;;;;;15.74;100.00;100600.31;5017770;28;20570;-78
2022/09/15 10:24:50;;;;;;;21.17;3.40;;;;;;;16.04;100.00;100599.00;5032666;28;20033;-77
2022/09/15 10:27:35;;;;;;;20.60;3.00;;;;;;;16.22;100.00;100607.22;5032114;28;20038;-77
2022/09/15 10:30:13;;;;;;;15.68;2.75;;;;;;;16.13;100.00;100610.97;5016520;28;20293;-78
2022/09/15 10:32:40;;;;;;;15.93;3.28;;;;;;;16.12;100.00;100610.09;5016071;28;20495;-77
2022/09/15 10:35:18;;;;;;;35.88;6.57;;;;;;;16.18;100.00;100605.81;5019966;28;20034;-77
2022/09/15 10:38:08;;;;;;;25.50;4.10;;;;;;;16.23;100.00;100606.19;5016149;28;20030;-78
2022/09/15 10:40:59;;;;;;;10.13;3.08;;;;;;;16.37;100.00;100610.22;5015782;28;20436;-77
2022/09/15 10:43:45;;;;;;;30.95;7.35;;;;;;;16.41;100.00;100619.06;5022335;28;20096;-77
2022/09/15 10:46:27;;;;;;;24.27;4.25;;;;;;;16.35;100.00;100613.16;5034498;28;20049;-78
2022/09/15 10:49:27;;;;;;;12.75;2.58;;;;;;;16.44;100.00;100610.44;5024420;28;20042;-78
2022/09/15 10:52:28;;;;;;;18.60;2.38;;;;;;;16.57;100.00;100613.59;5022278;28;20029;-78
2022/09/15 10:55:05;;;;;;;12.35;1.85;;;;;;;16.46;100.00;100614.78;5018300;28;20084;-77
2022/09/15 10:57:36;;;;;;;11.85;1.88;;;;;;;16.44;100.00;100603.00;5018837;28;20034;-78
2022/09/15 11:00:10;;;;;;;17.88;1.88;;;;;;;16.31;100.00;100602.59;5021352;28;20044;-77
2022/09/15 11:02:36;;;;;;;13.13;2.15;;;;;;;16.26;100.00;100613.28;5018034;28;20030;-77
2022/09/15 11:05:33;;;;;;;8.85;2.05;;;;;;;16.35;100.00;100615.06;5023668;28;20061;-77
2022/09/15 11:08:18;;;;;;;25.42;2.13;;;;;;;16.35;100.00;100617.81;5035251;28;20087;-77
2022/09/15 11:11:02;;;;;;;25.60;4.72;;;;;;;16.34;100.00;100619.69;5028188;28;20040;-78
2022/09/15 11:13:50;;;;;;;14.05;2.28;;;;;;;16.35;100.00;100624.22;5032279;28;20041;-77
2022/09/15 11:16:34;;;;;;;24.27;2.88;;;;;;;16.44;100.00;100632.53;5013975;28;20057;-77
2022/09/15 11:19:21;;;;;;;;;;;;;;;16.15;100.00;100631.88;5014101;28;20073;-77
2022/09/15 11:21:53;;;;;;;17.85;2.38;;;;;;;15.97;100.00;100625.53;5016986;28;19913;-77
2022/09/15 11:24:37;;;;;;;19.13;3.80;;;;;;;15.93;100.00;100636.03;5015930;28;20033;-77
2022/09/15 11:27:14;;;;;;;40.78;9.73;;;;;;;15.63;100.00;100640.09;5015428;28;20033;-77
2022/09/15 11:30:19;;;;;;;15.00;1.90;;;;;;;15.50;100.00;100645.16;5016563;28;20493;-78